createdAt,value
2022-12-16T00:00:15.945Z,93.68
2022-12-16T00:02:43.662Z,94.82
2022-12-16T00:05:11.137Z,96.67
2022-12-16T00:07:38.482Z,96.22
2022-12-16T00:10:07.314Z,97.05
2022-12-16T00:12:35.639Z,95.64
2022-12-16T00:15:02.990Z,96.18
2022-12-16T00:17:30.628Z,95.96
2022-12-16T00:19:57.965Z,95.03
2022-12-16T00:22:25.314Z,94.33
2022-12-16T00:24:53.027Z,92.97
2022-12-16T00:27:20.390Z,95.28
2022-12-16T00:29:47.743Z,94.23
2022-12-16T00:32:15.408Z,94.35
2022-12-16T00:34:42.767Z,94.81
2022-12-16T00:37:11.830Z,96.22
2022-12-16T00:39:39.451Z,96.03
2022-12-16T00:42:06.856Z,94.16
2022-12-16T00:44:34.269Z,93.73
2022-12-16T00:47:01.897Z,93.16
2022-12-16T00:49:29.400Z,92.93
2022-12-16T00:51:56.756Z,92.92
2022-12-16T00:54:24.381Z,93.21
2022-12-16T00:56:51.732Z,93.37
2022-12-16T00:59:19.425Z,93.31
2022-12-16T01:01:47.186Z,94.44
2022-12-16T01:04:14.699Z,96.48
2022-12-16T01:06:42.064Z,97.43
2022-12-16T01:09:09.749Z,97.31
2022-12-16T01:11:37.092Z,95.03
2022-12-16T01:14:04.911Z,92.67
2022-12-16T01:16:32.616Z,95.33
2022-12-16T01:19:00.088Z,95.53
2022-12-16T01:21:27.442Z,92.76
2022-12-16T01:23:55.145Z,94.31
2022-12-16T01:26:22.759Z,93.66
2022-12-16T01:28:50.100Z,96.20
2022-12-16T01:31:19.449Z,94.84
2022-12-16T01:33:47.106Z,96.96
2022-12-16T01:36:14.674Z,96.01
2022-12-16T01:38:44.329Z,95.55
2022-12-16T01:41:13.665Z,95.85
2022-12-16T01:43:42.368Z,97.77
2022-12-16T01:46:13.096Z,96.99
2022-12-16T01:48:47.889Z,97.88
2022-12-16T01:51:24.398Z,96.94
2022-12-16T01:53:56.142Z,97.45
2022-12-16T01:56:25.620Z,97.00
2022-12-16T01:58:53.171Z,95.86
2022-12-16T02:01:23.032Z,95.17
2022-12-16T02:03:52.845Z,96.71
2022-12-16T02:06:20.577Z,98.18
2022-12-16T02:08:52.569Z,97.01
2022-12-16T02:11:29.390Z,97.50
2022-12-16T02:14:28.718Z,98.03
2022-12-16T02:17:05.055Z,98.54
2022-12-16T02:19:57.205Z,100.00
2022-12-16T02:22:53.254Z,99.78
2022-12-16T02:25:26.157Z,99.99
2022-12-16T02:28:01.342Z,99.99
2022-12-16T02:30:35.546Z,99.70
2022-12-16T02:33:14.740Z,99.97
2022-12-16T02:35:52.995Z,98.76
2022-12-16T02:39:04.375Z,97.60
2022-12-16T02:41:53.442Z,96.52
2022-12-16T02:44:46.694Z,97.95
2022-12-16T02:47:14.235Z,97.78
2022-12-16T02:49:50.364Z,95.84
2022-12-16T02:52:20.928Z,96.26
2022-12-16T02:54:51.387Z,98.87
2022-12-16T02:57:55.949Z,98.56
2022-12-16T03:00:24.567Z,96.08
2022-12-16T03:03:02.864Z,94.90
2022-12-16T03:05:50.883Z,96.30
2022-12-16T03:08:27.070Z,97.86
2022-12-16T03:10:58.147Z,99.13
2022-12-16T03:13:25.770Z,98.61
2022-12-16T03:15:54.020Z,98.07
2022-12-16T03:18:22.417Z,96.42
2022-12-16T03:21:00.236Z,97.14
2022-12-16T03:23:34.430Z,99.10
2022-12-16T03:26:21.913Z,98.32
2022-12-16T03:28:57.907Z,97.45
2022-12-16T03:31:41.938Z,95.22
2022-12-16T03:34:33.011Z,96.56
2022-12-16T03:37:04.214Z,97.52
2022-12-16T03:39:35.245Z,97.78
2022-12-16T03:42:03.750Z,99.73
2022-12-16T03:44:31.230Z,99.73
2022-12-16T03:46:58.886Z,99.61
2022-12-16T03:49:26.333Z,99.05
2022-12-16T03:51:54.970Z,98.37
2022-12-16T03:54:23.533Z,98.14
2022-12-16T03:56:50.852Z,95.61
2022-12-16T03:59:18.266Z,96.35
2022-12-16T04:01:45.971Z,95.67
2022-12-16T04:04:13.673Z,99.46
2022-12-16T04:06:41.006Z,99.21
2022-12-16T04:09:08.496Z,98.43
2022-12-16T04:11:54.722Z,100.00
2022-12-16T04:14:40.622Z,100.00
2022-12-16T04:17:28.882Z,100.00
2022-12-16T04:20:14.897Z,99.23
2022-12-16T04:23:02.107Z,99.90
2022-12-16T04:25:35.744Z,98.20
2022-12-16T04:28:03.390Z,98.63
2022-12-16T04:30:34.672Z,99.38
2022-12-16T04:33:27.358Z,98.51
2022-12-16T04:36:13.695Z,100.00
2022-12-16T04:38:59.753Z,100.00
2022-12-16T04:41:46.012Z,100.00
2022-12-16T04:44:32.452Z,100.00
2022-12-16T04:47:19.016Z,98.25
2022-12-16T04:50:04.886Z,98.57
2022-12-16T04:52:51.012Z,97.53
2022-12-16T04:55:36.849Z,99.79
2022-12-16T04:58:23.085Z,95.90
2022-12-16T05:01:09.873Z,96.62
2022-12-16T05:03:56.120Z,97.68
2022-12-16T05:06:42.013Z,97.57
2022-12-16T05:09:28.055Z,97.98
2022-12-16T05:12:14.049Z,98.94
2022-12-16T05:15:00.093Z,98.16
2022-12-16T05:17:46.249Z,96.90
2022-12-16T05:20:32.670Z,96.08
2022-12-16T05:23:18.682Z,99.70
2022-12-16T05:26:04.541Z,98.13
2022-12-16T05:28:50.496Z,97.47
2022-12-16T05:31:37.035Z,98.74
2022-12-16T05:34:22.813Z,97.66
2022-12-16T05:37:08.986Z,99.05
2022-12-16T05:39:55.052Z,98.81
2022-12-16T05:42:41.264Z,97.27
2022-12-16T05:45:27.403Z,98.49
2022-12-16T05:48:14.477Z,99.07
2022-12-16T05:51:00.306Z,96.79
2022-12-16T05:53:56.905Z,94.78
2022-12-16T05:56:42.670Z,97.00
2022-12-16T05:59:28.915Z,97.31
2022-12-16T06:02:14.996Z,98.02
2022-12-16T06:05:01.390Z,98.05
2022-12-16T06:07:47.464Z,97.30
2022-12-16T06:10:33.706Z,99.13
2022-12-16T06:13:19.502Z,97.82
2022-12-16T06:16:08.952Z,98.04
2022-12-16T06:18:55.502Z,96.06
2022-12-16T06:21:41.499Z,94.09
2022-12-16T06:24:27.547Z,95.62
2022-12-16T06:27:13.563Z,96.91
2022-12-16T06:29:59.333Z,94.65
2022-12-16T06:32:45.404Z,96.03
2022-12-16T06:35:31.351Z,95.25
2022-12-16T06:38:17.756Z,94.31
2022-12-16T06:41:03.462Z,95.58
2022-12-16T06:43:49.450Z,95.66
2022-12-16T06:46:35.420Z,96.40
2022-12-16T06:49:21.635Z,94.08
2022-12-16T06:52:07.804Z,95.20
2022-12-16T06:54:53.908Z,95.00
2022-12-16T06:57:39.881Z,94.76
2022-12-16T07:00:26.583Z,96.38
2022-12-16T07:03:12.639Z,94.25
2022-12-16T07:05:58.902Z,91.57
2022-12-16T07:08:45.011Z,92.31
2022-12-16T07:11:31.283Z,92.23
2022-12-16T07:14:17.258Z,89.91
2022-12-16T07:17:03.596Z,92.92
2022-12-16T07:19:49.519Z,93.01
2022-12-16T07:22:35.865Z,90.06
2022-12-16T07:25:21.966Z,89.75
2022-12-16T07:28:13.817Z,89.64
2022-12-16T07:31:02.279Z,88.51
2022-12-16T07:33:48.657Z,93.22
2022-12-16T07:36:34.702Z,92.85
2022-12-16T07:39:21.003Z,91.18
2022-12-16T07:42:06.986Z,89.68
2022-12-16T07:45:03.989Z,90.44
2022-12-16T07:47:50.527Z,91.50
2022-12-16T07:50:37.372Z,92.18
2022-12-16T07:53:25.624Z,92.44
2022-12-16T07:56:15.858Z,92.11
2022-12-16T07:59:01.791Z,93.22
2022-12-16T08:01:48.053Z,91.85
2022-12-16T08:04:34.266Z,91.22
2022-12-16T08:07:20.315Z,91.93
2022-12-16T08:10:06.562Z,93.47
2022-12-16T08:12:52.829Z,92.49
2022-12-16T08:15:38.830Z,90.46
2022-12-16T08:18:24.821Z,90.33
2022-12-16T08:21:11.061Z,92.63
2022-12-16T08:23:57.137Z,89.09
2022-12-16T08:26:43.134Z,87.99
2022-12-16T08:29:45.783Z,87.83
2022-12-16T08:32:33.936Z,87.73
2022-12-16T08:35:19.860Z,92.39
2022-12-16T08:38:12.294Z,91.26
2022-12-16T08:41:01.795Z,89.03
2022-12-16T08:43:52.635Z,89.88
2022-12-16T08:46:39.385Z,90.66
2022-12-16T08:49:25.797Z,91.45
2022-12-16T08:52:11.702Z,91.00
2022-12-16T08:54:58.035Z,90.20
2022-12-16T08:57:43.976Z,93.51
2022-12-16T09:00:30.885Z,93.65
2022-12-16T09:03:18.225Z,91.30
2022-12-16T09:06:04.515Z,90.08
2022-12-16T09:08:51.168Z,93.62
2022-12-16T09:11:37.446Z,88.33
2022-12-16T09:14:23.727Z,89.73
2022-12-16T09:17:09.845Z,91.84
2022-12-16T09:19:55.804Z,88.50
2022-12-16T09:22:41.750Z,86.43
2022-12-16T09:25:27.917Z,84.60
2022-12-16T09:28:13.883Z,83.69
2022-12-16T09:30:59.973Z,84.04
2022-12-16T09:33:46.354Z,85.74
2022-12-16T09:36:32.186Z,89.30
2022-12-16T09:39:18.623Z,87.81
2022-12-16T09:42:27.837Z,84.57
2022-12-16T09:45:36.096Z,84.19
2022-12-16T09:48:31.517Z,84.10
2022-12-16T09:51:17.906Z,84.91
2022-12-16T09:54:03.880Z,85.67
2022-12-16T09:56:55.179Z,84.76
2022-12-16T09:59:46.298Z,84.58
2022-12-16T10:02:34.616Z,82.28
2022-12-16T10:05:21.222Z,81.39
2022-12-16T10:08:17.160Z,83.88
2022-12-16T10:11:14.208Z,84.40
2022-12-16T10:14:07.832Z,84.13
2022-12-16T10:17:03.335Z,84.33
2022-12-16T10:19:52.502Z,82.97
2022-12-16T10:22:56.233Z,80.21
2022-12-16T10:25:52.620Z,81.97
2022-12-16T10:28:54.419Z,82.59
2022-12-16T10:31:41.235Z,87.25
2022-12-16T10:34:33.766Z,85.96
2022-12-16T10:37:21.246Z,84.57
2022-12-16T10:40:11.541Z,84.14
2022-12-16T10:43:22.207Z,83.04
2022-12-16T10:46:10.713Z,82.64
2022-12-16T10:48:57.307Z,83.24
2022-12-16T10:51:46.540Z,83.96
2022-12-16T10:54:46.919Z,81.49
2022-12-16T10:57:51.845Z,81.53
2022-12-16T11:00:39.861Z,84.72
2022-12-16T11:03:41.558Z,85.40
2022-12-16T11:06:28.474Z,83.61
2022-12-16T11:09:14.268Z,85.34
2022-12-16T11:12:00.507Z,85.66
2022-12-16T11:15:28.261Z,85.48
2022-12-16T11:18:24.848Z,86.73
2022-12-16T11:21:37.034Z,85.34
2022-12-16T11:24:38.215Z,82.25
2022-12-16T11:27:32.597Z,83.17
2022-12-16T11:30:32.314Z,82.81
2022-12-16T11:33:21.636Z,81.63
2022-12-16T11:36:12.713Z,82.50
2022-12-16T11:39:02.527Z,81.38
2022-12-16T11:41:52.663Z,80.19
2022-12-16T11:44:43.829Z,82.53
2022-12-16T11:47:54.605Z,81.74
2022-12-16T11:50:43.520Z,81.16
2022-12-16T11:53:56.609Z,79.58
2022-12-16T11:56:45.152Z,81.50
2022-12-16T11:59:51.178Z,81.35
2022-12-16T12:02:43.305Z,81.18
2022-12-16T12:05:32.168Z,82.11
2022-12-16T12:08:29.403Z,87.39
2022-12-16T12:11:37.700Z,88.28
2022-12-16T12:14:34.344Z,90.90
2022-12-16T12:17:37.925Z,88.94
2022-12-16T12:21:01.506Z,87.44
2022-12-16T12:24:16.848Z,91.27
2022-12-16T12:27:17.073Z,89.09
2022-12-16T12:30:26.601Z,87.09
2022-12-16T12:33:43.678Z,86.96
2022-12-16T12:36:38.243Z,84.74
2022-12-16T12:39:44.054Z,86.15
2022-12-16T12:42:41.151Z,86.64
2022-12-16T12:45:36.221Z,88.31
2022-12-16T12:48:47.664Z,86.77
2022-12-16T12:51:48.211Z,85.62
2022-12-16T12:54:55.488Z,84.07
2022-12-16T12:57:44.612Z,83.53
2022-12-16T13:00:41.761Z,83.14
2022-12-16T13:03:37.688Z,81.21
2022-12-16T13:06:25.211Z,80.56
2022-12-16T13:09:11.387Z,81.68
2022-12-16T13:12:18.831Z,81.92
2022-12-16T13:15:13.453Z,83.46
2022-12-16T13:18:18.294Z,85.07
2022-12-16T13:21:12.478Z,85.81
2022-12-16T13:24:02.893Z,82.45
2022-12-16T13:26:51.181Z,79.45
2022-12-16T13:29:48.396Z,80.26
2022-12-16T13:32:42.493Z,80.02
2022-12-16T13:35:28.760Z,79.88
2022-12-16T13:38:37.122Z,79.46
2022-12-16T13:41:25.619Z,79.81
2022-12-16T13:44:16.885Z,79.65
2022-12-16T13:47:11.729Z,78.82
2022-12-16T13:50:01.864Z,81.73
2022-12-16T13:52:58.280Z,80.11
2022-12-16T13:55:56.685Z,80.44
2022-12-16T13:58:57.462Z,82.64
2022-12-16T14:02:10.735Z,83.80
2022-12-16T14:05:01.964Z,84.72
2022-12-16T14:07:51.353Z,81.73
2022-12-16T14:10:49.398Z,81.65
2022-12-16T14:14:17.240Z,82.90
2022-12-16T14:17:10.278Z,84.80
2022-12-16T14:20:11.038Z,83.56
2022-12-16T14:23:47.144Z,86.83
2022-12-16T14:26:34.404Z,89.30
2022-12-16T14:29:22.259Z,90.34
2022-12-16T14:32:08.286Z,85.60
2022-12-16T14:34:55.552Z,82.60
2022-12-16T14:37:48.469Z,79.13
2022-12-16T14:40:48.078Z,78.13
2022-12-16T14:43:43.027Z,77.93
2022-12-16T14:46:49.948Z,78.86
2022-12-16T14:49:40.525Z,77.40
2022-12-16T14:52:37.389Z,80.18
2022-12-16T14:55:46.460Z,81.24
2022-12-16T14:58:35.341Z,81.25
2022-12-16T15:01:33.587Z,81.80
2022-12-16T15:04:21.618Z,80.37
2022-12-16T15:07:09.371Z,78.70
2022-12-16T15:10:02.467Z,81.27
2022-12-16T15:12:52.623Z,80.46
2022-12-16T15:15:56.300Z,78.78
2022-12-16T15:18:58.079Z,79.93
2022-12-16T15:21:44.389Z,79.85
2022-12-16T15:24:35.546Z,80.33
2022-12-16T15:27:43.470Z,80.68
2022-12-16T15:30:53.339Z,81.79
2022-12-16T15:33:47.936Z,81.73
2022-12-16T15:36:54.940Z,81.99
2022-12-16T15:39:52.847Z,81.57
2022-12-16T15:42:47.523Z,83.15
2022-12-16T15:45:48.569Z,82.22
2022-12-16T15:48:47.691Z,81.84
2022-12-16T15:51:50.267Z,82.61
2022-12-16T15:54:41.408Z,81.13
2022-12-16T15:57:48.734Z,82.99
2022-12-16T16:00:47.919Z,82.49
2022-12-16T16:03:47.030Z,83.14
2022-12-16T16:06:33.985Z,83.82
2022-12-16T16:09:20.756Z,84.14
2022-12-16T16:12:06.854Z,84.41
2022-12-16T16:14:53.233Z,83.06
2022-12-16T16:17:41.212Z,80.91
2022-12-16T16:20:33.298Z,82.05
2022-12-16T16:23:19.327Z,79.76
2022-12-16T16:26:07.037Z,80.85
2022-12-16T16:28:53.914Z,81.45
2022-12-16T16:31:40.250Z,83.86
2022-12-16T16:34:26.493Z,84.86
2022-12-16T16:37:14.838Z,82.12
2022-12-16T16:40:01.879Z,81.12
2022-12-16T16:42:48.769Z,81.59
2022-12-16T16:45:34.835Z,80.50
2022-12-16T16:48:32.379Z,81.54
2022-12-16T16:51:19.527Z,83.72
2022-12-16T16:54:05.997Z,82.41
2022-12-16T16:56:53.449Z,84.08
2022-12-16T16:59:43.230Z,82.85
2022-12-16T17:02:41.218Z,82.07
2022-12-16T17:05:29.417Z,82.67
2022-12-16T17:08:15.959Z,82.99
2022-12-16T17:11:02.290Z,85.45
2022-12-16T17:13:48.281Z,84.61
2022-12-16T17:16:34.611Z,82.62
2022-12-16T17:19:21.640Z,79.87
2022-12-16T17:22:07.906Z,82.71
2022-12-16T17:24:54.851Z,84.10
2022-12-16T17:27:43.081Z,84.70
2022-12-16T17:30:40.692Z,84.51
2022-12-16T17:33:30.272Z,82.50
2022-12-16T17:36:16.651Z,81.92
2022-12-16T17:39:03.091Z,85.04
2022-12-16T17:41:50.829Z,84.35
2022-12-16T17:44:37.319Z,87.18
2022-12-16T17:47:23.414Z,87.45
2022-12-16T17:50:09.493Z,88.52
2022-12-16T17:52:55.230Z,91.11
2022-12-16T17:55:41.727Z,87.77
2022-12-16T17:58:30.831Z,89.72
2022-12-16T18:01:22.618Z,91.26
2022-12-16T18:04:09.912Z,92.89
2022-12-16T18:07:03.592Z,89.42
2022-12-16T18:09:49.681Z,89.31
2022-12-16T18:12:36.192Z,92.15
2022-12-16T18:15:22.559Z,91.26
2022-12-16T18:18:08.880Z,89.85
2022-12-16T18:20:55.364Z,90.51
2022-12-16T18:23:41.676Z,89.13
2022-12-16T18:26:28.734Z,86.75
2022-12-16T18:29:14.864Z,83.26
2022-12-16T18:32:01.328Z,83.40
2022-12-16T18:34:46.989Z,87.91
2022-12-16T18:37:35.303Z,87.36
2022-12-16T18:40:21.651Z,85.34
2022-12-16T18:43:07.771Z,87.07
2022-12-16T18:45:54.653Z,88.27
2022-12-16T18:48:41.483Z,87.53
2022-12-16T18:51:27.582Z,85.53
2022-12-16T18:54:19.045Z,83.60
2022-12-16T18:57:05.564Z,83.96
2022-12-16T18:59:52.331Z,84.25
2022-12-16T19:02:38.969Z,83.24
2022-12-16T19:05:26.040Z,84.14
2022-12-16T19:08:14.571Z,83.07
2022-12-16T19:11:01.654Z,82.83
2022-12-16T19:13:47.914Z,81.62
2022-12-16T19:16:34.616Z,81.62
2022-12-16T19:19:20.918Z,79.53
2022-12-16T19:22:06.969Z,80.50
2022-12-16T19:24:56.183Z,82.59
2022-12-16T19:27:43.828Z,84.06
2022-12-16T19:30:30.478Z,81.91
2022-12-16T19:33:16.844Z,83.60
2022-12-16T19:36:02.958Z,82.40
2022-12-16T19:38:49.357Z,81.39
2022-12-16T19:41:36.528Z,80.20
2022-12-16T19:44:23.531Z,80.28
2022-12-16T19:47:09.579Z,83.29
2022-12-16T19:49:56.079Z,83.38
2022-12-16T19:52:42.919Z,86.37
2022-12-16T19:55:30.216Z,84.70
2022-12-16T19:58:33.782Z,84.93
2022-12-16T20:01:27.880Z,84.67
2022-12-16T20:04:17.741Z,88.94
2022-12-16T20:07:04.884Z,88.89
2022-12-16T20:09:51.771Z,88.69
2022-12-16T20:12:38.117Z,89.43
2022-12-16T20:15:24.972Z,87.80
2022-12-16T20:18:19.017Z,92.87
2022-12-16T20:21:05.354Z,89.57
2022-12-16T20:23:51.995Z,88.76
2022-12-16T20:26:41.572Z,90.04
2022-12-16T20:29:28.201Z,88.77
2022-12-16T20:32:14.516Z,88.77
2022-12-16T20:35:00.529Z,91.11
2022-12-16T20:37:46.913Z,86.88
2022-12-16T20:40:32.838Z,91.16
2022-12-16T20:43:19.137Z,89.44
2022-12-16T20:46:05.095Z,87.55
2022-12-16T20:48:52.015Z,85.74
2022-12-16T20:51:38.496Z,88.16
2022-12-16T20:54:44.816Z,85.49
2022-12-16T20:57:30.640Z,87.05
2022-12-16T21:00:17.542Z,86.65
2022-12-16T21:03:11.019Z,85.55
2022-12-16T21:05:57.934Z,85.29
2022-12-16T21:08:43.809Z,84.29
2022-12-16T21:11:30.350Z,84.65
2022-12-16T21:14:17.392Z,85.34
2022-12-16T21:17:04.051Z,85.82
2022-12-16T21:19:50.719Z,88.84
2022-12-16T21:22:38.704Z,91.33
2022-12-16T21:25:25.981Z,89.93
2022-12-16T21:28:18.744Z,88.08
2022-12-16T21:31:04.872Z,90.48
2022-12-16T21:33:51.847Z,89.23
2022-12-16T21:36:37.984Z,86.36
2022-12-16T21:39:24.250Z,87.37
2022-12-16T21:42:10.353Z,88.31
2022-12-16T21:44:56.802Z,86.80
2022-12-16T21:47:43.428Z,85.84
2022-12-16T21:50:29.839Z,87.18
2022-12-16T21:53:15.893Z,87.21
2022-12-16T21:56:02.263Z,86.32
2022-12-16T21:58:48.286Z,85.48
2022-12-16T22:01:34.570Z,85.66
2022-12-16T22:04:40.818Z,87.96
2022-12-16T22:07:27.277Z,87.50
2022-12-16T22:10:13.385Z,85.65
2022-12-16T22:12:59.137Z,85.38
2022-12-16T22:15:45.570Z,84.55
2022-12-16T22:18:31.510Z,86.00
2022-12-16T22:21:22.805Z,86.48
2022-12-16T22:24:09.254Z,87.16
2022-12-16T22:26:55.493Z,88.69
2022-12-16T22:29:42.945Z,86.51
2022-12-16T22:32:29.196Z,87.12
2022-12-16T22:35:15.811Z,85.14
2022-12-16T22:38:02.027Z,88.05
2022-12-16T22:40:48.097Z,87.17
2022-12-16T22:43:34.721Z,89.52
2022-12-16T22:46:24.025Z,86.08
2022-12-16T22:49:10.209Z,87.47
2022-12-16T22:51:56.138Z,88.54
2022-12-16T22:54:42.842Z,88.56
2022-12-16T22:57:28.742Z,88.34
2022-12-16T23:00:15.103Z,88.88
2022-12-16T23:03:00.991Z,87.14
2022-12-16T23:05:47.400Z,85.61
2022-12-16T23:08:33.309Z,85.60
2022-12-16T23:11:19.393Z,86.66
2022-12-16T23:14:05.410Z,85.47
2022-12-16T23:16:51.696Z,86.65
2022-12-16T23:19:39.312Z,87.79
2022-12-16T23:22:25.673Z,88.15
2022-12-16T23:25:11.458Z,86.83
2022-12-16T23:27:57.537Z,88.88
2022-12-16T23:30:43.577Z,88.70
2022-12-16T23:33:29.700Z,86.86
2022-12-16T23:36:15.642Z,88.25
2022-12-16T23:39:02.008Z,87.92
2022-12-16T23:41:47.970Z,90.91
2022-12-16T23:44:34.329Z,91.66
2022-12-16T23:47:20.397Z,91.21
2022-12-16T23:50:06.466Z,91.14
2022-12-16T23:52:53.979Z,91.56
2022-12-16T23:55:42.484Z,91.90
2022-12-16T23:58:28.492Z,91.13
